sensor_id;sensor_type;location;lat;lon;timestamp;P1;durP1;ratioP1;P2;durP2;ratioP2
3901;SDS011;1966;49.908;9.156;2022-09-09T00:03:01;2.70;;;2.47;;
3901;SDS011;1966;49.908;9.156;2022-09-09T00:08:02;5.07;;;2.47;;
3901;SDS011;1966;49.908;9.156;2022-09-09T00:13:06;4.57;;;2.47;;
3901;SDS011;1966;49.908;9.156;2022-09-09T00:18:13;5.00;;;2.50;;
3901;SDS011;1966;49.908;9.156;2022-09-09T00:23:17;2.80;;;2.10;;
3901;SDS011;1966;49.908;9.156;2022-09-09T00:28:20;4.13;;;2.53;;
3901;SDS011;1966;49.908;9.156;2022-09-09T00:33:22;7.20;;;2.90;;
3901;SDS011;1966;49.908;9.156;2022-09-09T00:38:23;3.40;;;3.10;;
3901;SDS011;1966;49.908;9.156;2022-09-09T00:43:27;6.40;;;3.20;;
3901;SDS011;1966;49.908;9.156;2022-09-09T00:48:32;3.77;;;2.67;;
3901;SDS011;1966;49.908;9.156;2022-09-09T00:53:35;6.80;;;2.80;;
3901;SDS011;1966;49.908;9.156;2022-09-09T00:58:37;3.03;;;2.37;;
3901;SDS011;1966;49.908;9.156;2022-09-09T01:03:39;3.63;;;2.70;;
3901;SDS011;1966;49.908;9.156;2022-09-09T01:08:43;4.13;;;2.00;;
3901;SDS011;1966;49.908;9.156;2022-09-09T01:13:49;2.17;;;1.97;;
3901;SDS011;1966;49.908;9.156;2022-09-09T01:18:53;3.43;;;1.93;;
3901;SDS011;1966;49.908;9.156;2022-09-09T01:24:04;3.70;;;2.40;;
3901;SDS011;1966;49.908;9.156;2022-09-09T01:29:08;3.67;;;2.57;;
3901;SDS011;1966;49.908;9.156;2022-09-09T01:34:09;4.47;;;2.20;;
3901;SDS011;1966;49.908;9.156;2022-09-09T01:39:08;5.30;;;2.50;;
3901;SDS011;1966;49.908;9.156;2022-09-09T01:44:09;8.27;;;2.90;;
3901;SDS011;1966;49.908;9.156;2022-09-09T01:49:09;3.40;;;2.60;;
3901;SDS011;1966;49.908;9.156;2022-09-09T01:54:09;3.43;;;2.10;;
3901;SDS011;1966;49.908;9.156;2022-09-09T01:59:14;3.77;;;2.57;;
3901;SDS011;1966;49.908;9.156;2022-09-09T02:04:20;8.67;;;2.83;;
3901;SDS011;1966;49.908;9.156;2022-09-09T02:09:23;7.00;;;3.70;;
3901;SDS011;1966;49.908;9.156;2022-09-09T02:14:25;6.60;;;3.80;;
3901;SDS011;1966;49.908;9.156;2022-09-09T02:19:27;4.40;;;3.60;;
3901;SDS011;1966;49.908;9.156;2022-09-09T02:24:29;6.20;;;4.20;;
3901;SDS011;1966;49.908;9.156;2022-09-09T02:29:31;7.07;;;4.20;;
3901;SDS011;1966;49.908;9.156;2022-09-09T02:34:33;4.80;;;3.87;;
3901;SDS011;1966;49.908;9.156;2022-09-09T02:39:34;8.37;;;4.07;;
3901;SDS011;1966;49.908;9.156;2022-09-09T02:44:35;3.93;;;3.10;;
3901;SDS011;1966;49.908;9.156;2022-09-09T02:49:36;6.83;;;3.50;;
3901;SDS011;1966;49.908;9.156;2022-09-09T02:54:38;4.77;;;3.47;;
3901;SDS011;1966;49.908;9.156;2022-09-09T02:59:39;6.60;;;4.03;;
3901;SDS011;1966;49.908;9.156;2022-09-09T03:04:39;7.70;;;4.37;;
3901;SDS011;1966;49.908;9.156;2022-09-09T03:09:39;9.00;;;4.00;;
3901;SDS011;1966;49.908;9.156;2022-09-09T03:14:40;6.50;;;4.47;;
3901;SDS011;1966;49.908;9.156;2022-09-09T03:19:39;5.87;;;4.53;;
3901;SDS011;1966;49.908;9.156;2022-09-09T03:24:39;7.33;;;3.77;;
3901;SDS011;1966;49.908;9.156;2022-09-09T03:29:39;8.30;;;3.97;;
3901;SDS011;1966;49.908;9.156;2022-09-09T03:34:39;4.40;;;3.70;;
3901;SDS011;1966;49.908;9.156;2022-09-09T03:39:38;8.50;;;3.80;;
3901;SDS011;1966;49.908;9.156;2022-09-09T03:44:37;7.03;;;3.27;;
3901;SDS011;1966;49.908;9.156;2022-09-09T03:49:39;3.40;;;3.00;;
3901;SDS011;1966;49.908;9.156;2022-09-09T03:54:38;6.13;;;3.10;;
3901;SDS011;1966;49.908;9.156;2022-09-09T03:59:39;4.53;;;3.03;;
3901;SDS011;1966;49.908;9.156;2022-09-09T04:04:39;6.23;;;2.80;;
3901;SDS011;1966;49.908;9.156;2022-09-09T04:09:39;3.80;;;2.60;;
3901;SDS011;1966;49.908;9.156;2022-09-09T04:14:38;4.87;;;2.90;;
3901;SDS011;1966;49.908;9.156;2022-09-09T04:19:37;2.87;;;2.10;;
3901;SDS011;1966;49.908;9.156;2022-09-09T04:24:38;2.73;;;2.40;;
3901;SDS011;1966;49.908;9.156;2022-09-09T04:29:37;5.57;;;2.77;;
3901;SDS011;1966;49.908;9.156;2022-09-09T04:34:36;5.10;;;2.80;;
3901;SDS011;1966;49.908;9.156;2022-09-09T04:39:37;3.73;;;2.53;;
3901;SDS011;1966;49.908;9.156;2022-09-09T04:44:36;2.77;;;2.30;;
3901;SDS011;1966;49.908;9.156;2022-09-09T04:49:36;4.17;;;2.40;;
3901;SDS011;1966;49.908;9.156;2022-09-09T04:54:37;3.17;;;2.50;;
3901;SDS011;1966;49.908;9.156;2022-09-09T04:59:37;4.60;;;3.10;;
3901;SDS011;1966;49.908;9.156;2022-09-09T05:04:37;4.13;;;2.60;;
3901;SDS011;1966;49.908;9.156;2022-09-09T05:09:38;2.60;;;2.40;;
3901;SDS011;1966;49.908;9.156;2022-09-09T05:14:37;3.40;;;2.77;;
3901;SDS011;1966;49.908;9.156;2022-09-09T05:19:36;4.63;;;2.60;;
3901;SDS011;1966;49.908;9.156;2022-09-09T05:24:37;3.87;;;2.60;;
3901;SDS011;1966;49.908;9.156;2022-09-09T05:29:36;6.97;;;2.90;;
3901;SDS011;1966;49.908;9.156;2022-09-09T05:34:36;5.53;;;3.30;;
3901;SDS011;1966;49.908;9.156;2022-09-09T05:39:38;3.37;;;2.80;;
3901;SDS011;1966;49.908;9.156;2022-09-09T05:44:37;3.70;;;3.30;;
3901;SDS011;1966;49.908;9.156;2022-09-09T05:49:36;4.57;;;3.23;;
3901;SDS011;1966;49.908;9.156;2022-09-09T05:54:37;4.30;;;3.17;;
3901;SDS011;1966;49.908;9.156;2022-09-09T05:59:37;7.60;;;4.30;;
3901;SDS011;1966;49.908;9.156;2022-09-09T06:04:36;4.60;;;3.60;;
3901;SDS011;1966;49.908;9.156;2022-09-09T06:09:37;5.50;;;3.23;;
3901;SDS011;1966;49.908;9.156;2022-09-09T06:14:37;4.00;;;2.63;;
3901;SDS011;1966;49.908;9.156;2022-09-09T06:19:36;5.93;;;2.80;;
3901;SDS011;1966;49.908;9.156;2022-09-09T06:24:37;3.10;;;2.43;;
3901;SDS011;1966;49.908;9.156;2022-09-09T06:29:36;4.73;;;2.20;;
3901;SDS011;1966;49.908;9.156;2022-09-09T06:34:36;3.03;;;2.50;;
3901;SDS011;1966;49.908;9.156;2022-09-09T06:39:35;4.80;;;2.00;;
3901;SDS011;1966;49.908;9.156;2022-09-09T06:44:36;2.37;;;2.17;;
3901;SDS011;1966;49.908;9.156;2022-09-09T06:49:35;2.57;;;1.80;;
3901;SDS011;1966;49.908;9.156;2022-09-09T06:54:34;3.63;;;1.93;;
3901;SDS011;1966;49.908;9.156;2022-09-09T06:59:36;4.60;;;2.83;;
3901;SDS011;1966;49.908;9.156;2022-09-09T07:04:36;4.20;;;1.80;;
3901;SDS011;1966;49.908;9.156;2022-09-09T07:09:36;3.03;;;1.80;;
3901;SDS011;1966;49.908;9.156;2022-09-09T07:14:36;9.60;;;2.07;;
3901;SDS011;1966;49.908;9.156;2022-09-09T07:19:36;6.30;;;1.80;;
3901;SDS011;1966;49.908;9.156;2022-09-09T07:24:35;3.30;;;1.57;;
3901;SDS011;1966;49.908;9.156;2022-09-09T07:29:36;3.47;;;2.07;;
3901;SDS011;1966;49.908;9.156;2022-09-09T07:34:35;6.67;;;2.00;;
3901;SDS011;1966;49.908;9.156;2022-09-09T07:39:35;3.57;;;2.17;;
3901;SDS011;1966;49.908;9.156;2022-09-09T07:44:34;4.13;;;2.00;;
3901;SDS011;1966;49.908;9.156;2022-09-09T07:49:35;2.80;;;2.07;;
3901;SDS011;1966;49.908;9.156;2022-09-09T07:54:35;3.20;;;2.10;;
3901;SDS011;1966;49.908;9.156;2022-09-09T07:59:34;5.23;;;2.17;;
3901;SDS011;1966;49.908;9.156;2022-09-09T08:04:33;4.13;;;2.20;;
3901;SDS011;1966;49.908;9.156;2022-09-09T08:09:34;3.90;;;2.00;;
3901;SDS011;1966;49.908;9.156;2022-09-09T08:14:33;3.70;;;2.10;;
3901;SDS011;1966;49.908;9.156;2022-09-09T08:19:33;3.77;;;2.10;;
3901;SDS011;1966;49.908;9.156;2022-09-09T08:24:35;4.57;;;2.43;;
3901;SDS011;1966;49.908;9.156;2022-09-09T08:29:34;8.60;;;2.17;;
3901;SDS011;1966;49.908;9.156;2022-09-09T08:34:35;4.20;;;1.93;;
3901;SDS011;1966;49.908;9.156;2022-09-09T08:39:36;5.60;;;2.07;;
3901;SDS011;1966;49.908;9.156;2022-09-09T08:44:39;6.73;;;2.27;;
3901;SDS011;1966;49.908;9.156;2022-09-09T08:49:47;4.27;;;2.20;;
3901;SDS011;1966;49.908;9.156;2022-09-09T08:54:51;6.50;;;2.60;;
3901;SDS011;1966;49.908;9.156;2022-09-09T08:59:53;10.00;;;2.70;;
3901;SDS011;1966;49.908;9.156;2022-09-09T09:04:59;5.20;;;2.30;;
3901;SDS011;1966;49.908;9.156;2022-09-09T09:10:04;5.20;;;2.00;;
3901;SDS011;1966;49.908;9.156;2022-09-09T09:15:05;6.07;;;2.67;;
3901;SDS011;1966;49.908;9.156;2022-09-09T09:20:11;3.23;;;1.83;;
3901;SDS011;1966;49.908;9.156;2022-09-09T09:25:14;9.93;;;2.63;;
3901;SDS011;1966;49.908;9.156;2022-09-09T09:30:16;6.40;;;2.30;;
3901;SDS011;1966;49.908;9.156;2022-09-09T09:35:17;3.00;;;1.87;;
3901;SDS011;1966;49.908;9.156;2022-09-09T09:40:18;5.43;;;2.00;;
3901;SDS011;1966;49.908;9.156;2022-09-09T09:45:23;8.17;;;2.03;;
3901;SDS011;1966;49.908;9.156;2022-09-09T09:50:26;4.80;;;1.90;;
3901;SDS011;1966;49.908;9.156;2022-09-09T09:55:27;3.00;;;1.80;;
3901;SDS011;1966;49.908;9.156;2022-09-09T10:00:28;6.80;;;1.80;;
3901;SDS011;1966;49.908;9.156;2022-09-09T10:05:28;5.83;;;2.10;;
3901;SDS011;1966;49.908;9.156;2022-09-09T10:10:31;5.87;;;2.13;;
3901;SDS011;1966;49.908;9.156;2022-09-09T10:15:36;6.23;;;1.80;;
3901;SDS011;1966;49.908;9.156;2022-09-09T10:20:40;4.40;;;2.20;;
3901;SDS011;1966;49.908;9.156;2022-09-09T10:25:49;4.83;;;2.10;;
3901;SDS011;1966;49.908;9.156;2022-09-09T10:30:55;4.17;;;1.80;;
3901;SDS011;1966;49.908;9.156;2022-09-09T10:35:58;3.00;;;1.70;;
3901;SDS011;1966;49.908;9.156;2022-09-09T10:41:07;6.30;;;2.10;;
3901;SDS011;1966;49.908;9.156;2022-09-09T10:46:10;3.80;;;1.63;;
3901;SDS011;1966;49.908;9.156;2022-09-09T10:51:16;2.60;;;1.60;;
3901;SDS011;1966;49.908;9.156;2022-09-09T10:56:18;2.97;;;1.70;;
3901;SDS011;1966;49.908;9.156;2022-09-09T11:01:20;4.87;;;1.90;;
3901;SDS011;1966;49.908;9.156;2022-09-09T11:06:21;3.80;;;1.77;;
3901;SDS011;1966;49.908;9.156;2022-09-09T11:11:26;1.87;;;1.50;;
3901;SDS011;1966;49.908;9.156;2022-09-09T11:16:28;4.37;;;1.73;;
3901;SDS011;1966;49.908;9.156;2022-09-09T11:21:29;3.53;;;1.73;;
3901;SDS011;1966;49.908;9.156;2022-09-09T11:26:32;4.30;;;1.93;;
3901;SDS011;1966;49.908;9.156;2022-09-09T11:31:40;4.03;;;1.50;;
3901;SDS011;1966;49.908;9.156;2022-09-09T11:36:50;6.53;;;1.60;;
3901;SDS011;1966;49.908;9.156;2022-09-09T11:41:55;3.23;;;1.63;;
3901;SDS011;1966;49.908;9.156;2022-09-09T11:47:15;2.93;;;1.60;;
3901;SDS011;1966;49.908;9.156;2022-09-09T11:52:20;1.97;;;1.20;;
3901;SDS011;1966;49.908;9.156;2022-09-09T11:57:24;5.77;;;1.57;;
3901;SDS011;1966;49.908;9.156;2022-09-09T12:02:24;4.43;;;1.40;;
3901;SDS011;1966;49.908;9.156;2022-09-09T12:07:28;2.23;;;1.40;;
3901;SDS011;1966;49.908;9.156;2022-09-09T12:12:31;3.30;;;1.40;;
3901;SDS011;1966;49.908;9.156;2022-09-09T12:17:31;2.87;;;1.50;;
3901;SDS011;1966;49.908;9.156;2022-09-09T12:22:37;2.43;;;1.23;;
3901;SDS011;1966;49.908;9.156;2022-09-09T12:27:42;2.50;;;1.47;;
3901;SDS011;1966;49.908;9.156;2022-09-09T12:32:43;1.77;;;1.50;;
3901;SDS011;1966;49.908;9.156;2022-09-09T12:37:44;2.30;;;1.40;;
3901;SDS011;1966;49.908;9.156;2022-09-09T12:42:47;3.17;;;1.50;;
3901;SDS011;1966;49.908;9.156;2022-09-09T12:47:48;2.30;;;1.50;;
3901;SDS011;1966;49.908;9.156;2022-09-09T12:52:50;3.00;;;1.60;;
3901;SDS011;1966;49.908;9.156;2022-09-09T12:57:52;3.63;;;1.80;;
3901;SDS011;1966;49.908;9.156;2022-09-09T13:02:52;3.80;;;1.90;;
3901;SDS011;1966;49.908;9.156;2022-09-09T13:08:00;4.07;;;2.30;;
3901;SDS011;1966;49.908;9.156;2022-09-09T13:13:01;6.60;;;1.70;;
3901;SDS011;1966;49.908;9.156;2022-09-09T13:18:02;4.40;;;1.60;;
3901;SDS011;1966;49.908;9.156;2022-09-09T13:23:03;4.00;;;2.10;;
3901;SDS011;1966;49.908;9.156;2022-09-09T13:28:04;3.93;;;1.77;;
3901;SDS011;1966;49.908;9.156;2022-09-09T13:33:06;3.63;;;1.60;;
3901;SDS011;1966;49.908;9.156;2022-09-09T13:38:08;1.67;;;1.57;;
3901;SDS011;1966;49.908;9.156;2022-09-09T13:43:12;5.23;;;1.80;;
3901;SDS011;1966;49.908;9.156;2022-09-09T13:48:17;8.00;;;1.77;;
3901;SDS011;1966;49.908;9.156;2022-09-09T13:53:17;4.60;;;2.10;;
3901;SDS011;1966;49.908;9.156;2022-09-09T13:58:18;4.40;;;1.70;;
3901;SDS011;1966;49.908;9.156;2022-09-09T14:03:18;3.43;;;1.40;;
3901;SDS011;1966;49.908;9.156;2022-09-09T14:08:20;2.60;;;1.57;;
3901;SDS011;1966;49.908;9.156;2022-09-09T14:13:21;3.13;;;1.47;;
3901;SDS011;1966;49.908;9.156;2022-09-09T14:18:21;2.90;;;1.53;;
3901;SDS011;1966;49.908;9.156;2022-09-09T14:23:21;2.23;;;1.33;;
3901;SDS011;1966;49.908;9.156;2022-09-09T14:28:23;2.03;;;1.57;;
3901;SDS011;1966;49.908;9.156;2022-09-09T14:33:22;3.37;;;1.43;;
3901;SDS011;1966;49.908;9.156;2022-09-09T14:38:21;2.20;;;1.40;;
3901;SDS011;1966;49.908;9.156;2022-09-09T14:43:22;3.77;;;1.70;;
3901;SDS011;1966;49.908;9.156;2022-09-09T14:48:21;3.90;;;1.50;;
3901;SDS011;1966;49.908;9.156;2022-09-09T14:53:21;3.60;;;1.63;;
3901;SDS011;1966;49.908;9.156;2022-09-09T14:58:20;5.33;;;1.83;;
3901;SDS011;1966;49.908;9.156;2022-09-09T15:03:20;5.03;;;1.50;;
3901;SDS011;1966;49.908;9.156;2022-09-09T15:08:21;5.00;;;2.00;;
3901;SDS011;1966;49.908;9.156;2022-09-09T15:13:20;3.50;;;1.70;;
3901;SDS011;1966;49.908;9.156;2022-09-09T15:18:21;3.03;;;1.70;;
3901;SDS011;1966;49.908;9.156;2022-09-09T15:23:20;1.70;;;1.40;;
3901;SDS011;1966;49.908;9.156;2022-09-09T15:28:20;1.90;;;1.47;;
3901;SDS011;1966;49.908;9.156;2022-09-09T15:33:21;3.93;;;1.83;;
3901;SDS011;1966;49.908;9.156;2022-09-09T15:38:20;2.47;;;1.60;;
3901;SDS011;1966;49.908;9.156;2022-09-09T15:43:19;4.73;;;1.60;;
3901;SDS011;1966;49.908;9.156;2022-09-09T15:48:20;2.47;;;1.80;;
3901;SDS011;1966;49.908;9.156;2022-09-09T15:53:28;3.00;;;1.80;;
3901;SDS011;1966;49.908;9.156;2022-09-09T15:58:29;3.37;;;1.63;;
3901;SDS011;1966;49.908;9.156;2022-09-09T16:03:30;2.40;;;1.50;;
3901;SDS011;1966;49.908;9.156;2022-09-09T16:08:32;4.73;;;1.80;;
3901;SDS011;1966;49.908;9.156;2022-09-09T16:13:32;3.00;;;1.83;;
3901;SDS011;1966;49.908;9.156;2022-09-09T16:18:34;4.67;;;1.90;;
3901;SDS011;1966;49.908;9.156;2022-09-09T16:23:34;2.60;;;2.03;;
3901;SDS011;1966;49.908;9.156;2022-09-09T16:28:33;1.80;;;1.70;;
3901;SDS011;1966;49.908;9.156;2022-09-09T16:33:35;12.63;;;1.70;;
3901;SDS011;1966;49.908;9.156;2022-09-09T16:38:34;4.37;;;1.90;;
3901;SDS011;1966;49.908;9.156;2022-09-09T16:43:34;4.83;;;1.90;;
3901;SDS011;1966;49.908;9.156;2022-09-09T16:48:35;7.10;;;2.00;;
3901;SDS011;1966;49.908;9.156;2022-09-09T16:53:34;2.13;;;1.73;;
3901;SDS011;1966;49.908;9.156;2022-09-09T16:58:34;3.20;;;1.70;;
3901;SDS011;1966;49.908;9.156;2022-09-09T17:03:33;2.30;;;1.57;;
3901;SDS011;1966;49.908;9.156;2022-09-09T17:08:33;1.50;;;1.10;;
3901;SDS011;1966;49.908;9.156;2022-09-09T17:13:33;1.57;;;1.30;;
3901;SDS011;1966;49.908;9.156;2022-09-09T17:18:32;2.17;;;1.30;;
3901;SDS011;1966;49.908;9.156;2022-09-09T17:23:31;1.87;;;1.60;;
3901;SDS011;1966;49.908;9.156;2022-09-09T17:28:32;4.10;;;2.30;;
3901;SDS011;1966;49.908;9.156;2022-09-09T17:33:32;2.87;;;1.60;;
3901;SDS011;1966;49.908;9.156;2022-09-09T17:38:31;4.77;;;1.83;;
3901;SDS011;1966;49.908;9.156;2022-09-09T17:43:32;3.00;;;1.60;;
3901;SDS011;1966;49.908;9.156;2022-09-09T17:48:31;4.40;;;1.83;;
3901;SDS011;1966;49.908;9.156;2022-09-09T17:53:31;4.13;;;1.40;;
3901;SDS011;1966;49.908;9.156;2022-09-09T17:58:30;1.47;;;1.37;;
3901;SDS011;1966;49.908;9.156;2022-09-09T18:03:31;2.40;;;1.73;;
3901;SDS011;1966;49.908;9.156;2022-09-09T18:08:31;1.97;;;1.50;;
3901;SDS011;1966;49.908;9.156;2022-09-09T18:13:31;1.70;;;1.50;;
3901;SDS011;1966;49.908;9.156;2022-09-09T18:18:32;2.03;;;1.50;;
3901;SDS011;1966;49.908;9.156;2022-09-09T18:23:33;4.00;;;1.63;;
3901;SDS011;1966;49.908;9.156;2022-09-09T18:28:33;3.33;;;1.60;;
3901;SDS011;1966;49.908;9.156;2022-09-09T18:33:34;2.13;;;1.50;;
3901;SDS011;1966;49.908;9.156;2022-09-09T18:38:34;2.20;;;1.80;;
3901;SDS011;1966;49.908;9.156;2022-09-09T18:43:35;5.80;;;2.57;;
3901;SDS011;1966;49.908;9.156;2022-09-09T18:48:36;6.90;;;2.63;;
3901;SDS011;1966;49.908;9.156;2022-09-09T18:53:36;3.60;;;2.50;;
3901;SDS011;1966;49.908;9.156;2022-09-09T18:58:36;2.13;;;1.93;;
3901;SDS011;1966;49.908;9.156;2022-09-09T19:03:36;1.73;;;1.50;;
3901;SDS011;1966;49.908;9.156;2022-09-09T19:08:36;2.20;;;2.00;;
3901;SDS011;1966;49.908;9.156;2022-09-09T19:13:36;2.23;;;2.00;;
3901;SDS011;1966;49.908;9.156;2022-09-09T19:18:37;3.80;;;1.80;;
3901;SDS011;1966;49.908;9.156;2022-09-09T19:23:36;1.60;;;1.40;;
3901;SDS011;1966;49.908;9.156;2022-09-09T19:28:36;2.33;;;1.50;;
3901;SDS011;1966;49.908;9.156;2022-09-09T19:33:38;2.43;;;1.70;;
3901;SDS011;1966;49.908;9.156;2022-09-09T19:38:40;2.40;;;1.70;;
3901;SDS011;1966;49.908;9.156;2022-09-09T19:43:40;1.83;;;1.67;;
3901;SDS011;1966;49.908;9.156;2022-09-09T19:48:41;2.43;;;2.23;;
3901;SDS011;1966;49.908;9.156;2022-09-09T19:53:41;2.53;;;1.80;;
3901;SDS011;1966;49.908;9.156;2022-09-09T19:58:41;2.50;;;1.60;;
3901;SDS011;1966;49.908;9.156;2022-09-09T20:03:44;4.33;;;2.50;;
3901;SDS011;1966;49.908;9.156;2022-09-09T20:08:45;3.87;;;1.90;;
3901;SDS011;1966;49.908;9.156;2022-09-09T20:13:46;2.23;;;1.87;;
3901;SDS011;1966;49.908;9.156;2022-09-09T20:18:47;4.13;;;1.93;;
3901;SDS011;1966;49.908;9.156;2022-09-09T20:23:49;3.50;;;2.30;;
3901;SDS011;1966;49.908;9.156;2022-09-09T20:28:49;2.60;;;1.90;;
3901;SDS011;1966;49.908;9.156;2022-09-09T20:33:50;2.23;;;2.03;;
3901;SDS011;1966;49.908;9.156;2022-09-09T20:38:51;2.43;;;2.23;;
3901;SDS011;1966;49.908;9.156;2022-09-09T20:43:51;2.83;;;2.00;;
3901;SDS011;1966;49.908;9.156;2022-09-09T20:48:52;3.07;;;2.30;;
3901;SDS011;1966;49.908;9.156;2022-09-09T20:53:53;4.03;;;2.40;;
3901;SDS011;1966;49.908;9.156;2022-09-09T20:58:54;3.20;;;1.93;;
3901;SDS011;1966;49.908;9.156;2022-09-09T21:03:54;2.20;;;2.00;;
3901;SDS011;1966;49.908;9.156;2022-09-09T21:08:54;2.70;;;2.13;;
3901;SDS011;1966;49.908;9.156;2022-09-09T21:13:53;2.47;;;2.27;;
3901;SDS011;1966;49.908;9.156;2022-09-09T21:18:54;3.10;;;2.20;;
3901;SDS011;1966;49.908;9.156;2022-09-09T21:23:54;3.20;;;2.70;;
3901;SDS011;1966;49.908;9.156;2022-09-09T21:28:53;4.13;;;2.33;;
3901;SDS011;1966;49.908;9.156;2022-09-09T21:33:54;2.37;;;2.17;;
3901;SDS011;1966;49.908;9.156;2022-09-09T21:38:54;2.60;;;2.40;;
3901;SDS011;1966;49.908;9.156;2022-09-09T21:43:53;2.33;;;2.13;;
3901;SDS011;1966;49.908;9.156;2022-09-09T21:48:54;2.40;;;1.97;;
3901;SDS011;1966;49.908;9.156;2022-09-09T21:53:54;2.43;;;2.23;;
3901;SDS011;1966;49.908;9.156;2022-09-09T21:58:54;2.30;;;2.10;;
3901;SDS011;1966;49.908;9.156;2022-09-09T22:03:56;2.50;;;2.30;;
3901;SDS011;1966;49.908;9.156;2022-09-09T22:08:55;3.43;;;2.10;;
3901;SDS011;1966;49.908;9.156;2022-09-09T22:13:56;2.40;;;2.07;;
3901;SDS011;1966;49.908;9.156;2022-09-09T22:18:57;2.40;;;1.70;;
3901;SDS011;1966;49.908;9.156;2022-09-09T22:23:58;1.73;;;1.63;;
3901;SDS011;1966;49.908;9.156;2022-09-09T22:28:57;2.43;;;1.63;;
3901;SDS011;1966;49.908;9.156;2022-09-09T22:33:58;2.00;;;1.63;;
3901;SDS011;1966;49.908;9.156;2022-09-09T22:38:57;3.33;;;2.40;;
3901;SDS011;1966;49.908;9.156;2022-09-09T22:43:57;2.73;;;2.43;;
3901;SDS011;1966;49.908;9.156;2022-09-09T22:48:56;2.40;;;2.00;;
3901;SDS011;1966;49.908;9.156;2022-09-09T22:53:57;1.77;;;1.67;;
3901;SDS011;1966;49.908;9.156;2022-09-09T22:58:56;3.50;;;1.80;;
3901;SDS011;1966;49.908;9.156;2022-09-09T23:03:56;2.97;;;2.00;;
3901;SDS011;1966;49.908;9.156;2022-09-09T23:08:58;4.97;;;2.30;;
3901;SDS011;1966;49.908;9.156;2022-09-09T23:13:58;2.00;;;1.90;;
3901;SDS011;1966;49.908;9.156;2022-09-09T23:18:58;2.90;;;1.97;;
3901;SDS011;1966;49.908;9.156;2022-09-09T23:24:00;2.33;;;2.13;;
3901;SDS011;1966;49.908;9.156;2022-09-09T23:28:59;1.93;;;1.77;;
3901;SDS011;1966;49.908;9.156;2022-09-09T23:33:59;3.40;;;1.80;;
3901;SDS011;1966;49.908;9.156;2022-09-09T23:39:00;2.93;;;1.57;;
3901;SDS011;1966;49.908;9.156;2022-09-09T23:44:01;3.33;;;2.37;;
3901;SDS011;1966;49.908;9.156;2022-09-09T23:49:00;3.73;;;1.90;;
3901;SDS011;1966;49.908;9.156;2022-09-09T23:54:02;2.43;;;1.70;;
3901;SDS011;1966;49.908;9.156;2022-09-09T23:59:02;1.90;;;1.70;;
